D95

Dupont-Lapeer Airport

Lapeer, Michigan, USA
METAR KD95 170835Z AUTO 27006KT 10SM SCT028 OVC033 02/M02 A3010 RMK AO2 T00151020
Observed Flight Rules
Nov-17 @ 08:35 UTC (22 minutes ago) Visual Flight Rules
Wind Visibility Clouds
270° at 6 knots 10 miles
  • Scattered at 2,800' AGL
  • Overcast at 3,300' AGL
Temperatures Readings
Current 2°C / 36°F
Dewpoint -2°C / 28°F
Humidity 75%
Altimeter 30.1" Hg
Pressure 1019 hPa
Elevation 255
METAR KD95 170835Z AUTO 27006KT 10SM SCT028 OVC033 02/M02 A3010 RMK AO2 T00151020
Observed Flight Rules
Nov-17 @ 08:35 UTC
(22 minutes ago)
VFR
Wind Visibility
270° at 6 knots 10 miles
Clouds
  • Scattered at 2,800' AGL
  • Overcast at 3,300' AGL
Temperature Dewpoint
2°C / 36°F -2°C / 28°F
Humidity Altimeter Pressure
75% 30.1" Hg 1019 hPa